Time;durP1;ratioP1;P1;durP2;ratioP2;P2;SDS_P1;SDS_P2;PMS_P1;PMS_P2;Temp;Humidity;BMP_temperature;BMP_pressure;BME280_temperature;BME280_humidity;BME280_pressure;Samples;Min_cycle;Max_cycle;Signal;HPM_P1;HPM_P2
2021/05/14 00:01:53;;;;;;;13.55;10.25;;;;;;;;;;5133116;28;20504;-77
2021/05/14 00:04:19;;;;;;;12.65;10.15;;;;;;;;;;5130905;28;20542;-78
2021/05/14 00:06:45;;;;;;;13.85;10.00;;;;;;;;;;5112939;28;20177;-78
2021/05/14 00:09:11;;;;;;;12.95;10.20;;;;;;;;;;5126232;28;20198;-76
2021/05/14 00:11:37;;;;;;;15.88;10.98;;;;;;;;;;5112515;28;20182;-76
2021/05/14 00:14:03;;;;;;;12.68;10.07;;;;;;;;;;5112194;28;20639;-74
2021/05/14 00:16:29;;;;;;;11.93;9.27;;;;;;;;;;5110974;28;20183;-74
2021/05/14 00:18:55;;;;;;;10.38;9.20;;;;;;;;;;5113314;28;20198;-74
2021/05/14 00:21:22;;;;;;;13.48;9.82;;;;;;;;;;5133508;28;20169;-76
2021/05/14 00:23:48;;;;;;;13.23;10.00;;;;;;;;;;5116252;28;20639;-77
2021/05/14 00:26:14;;;;;;;13.07;8.93;;;;;;;;;;5122848;27;20188;-76
2021/05/14 00:28:40;;;;;;;14.20;10.40;;;;;;;;;;5122802;27;20198;-73
2021/05/14 00:31:06;;;;;;;14.75;10.73;;;;;;;;;;5123300;27;20186;-75
2021/05/14 00:33:32;;;;;;;12.95;10.38;;;;;;;;;;5131457;27;20175;-77
2021/05/14 00:35:58;;;;;;;13.80;10.13;;;;;;;;;;5136792;27;20652;-74
2021/05/14 00:38:24;;;;;;;14.02;10.23;;;;;;;;;;5122944;27;20802;-76
2021/05/14 00:40:50;;;;;;;17.07;10.80;;;;;;;;;;5115702;27;20258;-76
2021/05/14 00:43:16;;;;;;;14.00;10.83;;;;;;;;;;5128548;27;20415;-76
2021/05/14 00:45:42;;;;;;;16.40;11.60;;;;;;;;;;5133242;27;20499;-75
2021/05/14 00:48:08;;;;;;;13.20;10.90;;;;;;;;;;5112160;28;20908;-76
2021/05/14 00:50:34;;;;;;;16.35;12.48;;;;;;;;;;5123927;27;20442;-74
2021/05/14 00:53:00;;;;;;;11.05;9.57;;;;;;;;;;5136044;27;20605;-75
2021/05/14 00:55:26;;;;;;;15.70;11.02;;;;;;;;;;5117238;27;20214;-78
2021/05/14 00:57:52;;;;;;;14.55;10.95;;;;;;;;;;5116978;27;20509;-76
2021/05/14 01:00:18;;;;;;;22.80;12.23;;;;;;;;;;5118915;27;20205;-77
2021/05/14 01:02:44;;;;;;;16.40;12.25;;;;;;;;;;5116662;27;20428;-77
2021/05/14 01:05:11;;;;;;;17.02;12.23;;;;;;;;;;5130593;27;20254;-75
2021/05/14 01:07:37;;;;;;;17.42;11.15;;;;;;;;;;5136238;27;20181;-76
2021/05/14 01:10:03;;;;;;;24.00;12.60;;;;;;;;;;5118187;27;20532;-77
2021/05/14 01:12:29;;;;;;;18.42;13.65;;;;;;;;;;5116787;27;20422;-75
2021/05/14 01:14:55;;;;;;;15.93;13.03;;;;;;;;;;5116443;27;20185;-74
2021/05/14 01:17:21;;;;;;;19.40;12.73;;;;;;;;;;5121614;27;20553;-75
2021/05/14 01:19:47;;;;;;;17.27;13.45;;;;;;;;;;5114973;28;20789;-74
2021/05/14 01:22:13;;;;;;;26.05;14.63;;;;;;;;;;5128961;27;20178;-75
2021/05/14 01:24:39;;;;;;;17.83;13.03;;;;;;;;;;5123452;27;20202;-74
2021/05/14 01:27:05;;;;;;;18.87;13.43;;;;;;;;;;5120752;27;20883;-77
2021/05/14 01:29:31;;;;;;;18.77;13.70;;;;;;;;;;5111860;28;20535;-75
2021/05/14 01:31:57;;;;;;;19.60;14.80;;;;;;;;;;5121387;27;20174;-74
2021/05/14 01:34:23;;;;;;;19.83;13.67;;;;;;;;;;5133646;27;20541;-77
2021/05/14 01:36:49;;;;;;;16.47;13.33;;;;;;;;;;5121307;27;20415;-74
2021/05/14 01:39:17;;;;;;;17.00;13.50;;;;;;;;;;5124194;27;20478;-75
2021/05/14 01:41:43;;;;;;;19.58;12.52;;;;;;;;;;5114888;27;20436;-76
2021/05/14 01:44:09;;;;;;;18.35;13.82;;;;;;;;;;5114550;27;20531;-76
2021/05/14 01:46:36;;;;;;;18.48;14.38;;;;;;;;;;5114615;28;20535;-75
2021/05/14 01:49:02;;;;;;;20.80;15.48;;;;;;;;;;5121575;27;20232;-74
2021/05/14 01:51:29;;;;;;;17.60;14.13;;;;;;;;;;5135348;27;20538;-75
2021/05/14 01:53:55;;;;;;;22.55;14.02;;;;;;;;;;5123591;27;20182;-74
2021/05/14 01:56:21;;;;;;;24.47;15.57;;;;;;;;;;5127115;27;20174;-75
2021/05/14 01:58:47;;;;;;;16.73;14.23;;;;;;;;;;5135254;27;20788;-74
2021/05/14 02:01:14;;;;;;;23.58;16.13;;;;;;;;;;5113896;27;20175;-75
2021/05/14 02:03:40;;;;;;;25.27;16.48;;;;;;;;;;5121979;27;20710;-76
2021/05/14 02:06:06;;;;;;;22.60;15.45;;;;;;;;;;5112190;27;20214;-75
2021/05/14 02:08:32;;;;;;;23.00;16.40;;;;;;;;;;5127246;27;20210;-75
2021/05/14 02:10:58;;;;;;;23.27;14.88;;;;;;;;;;5110398;27;20421;-76
2021/05/14 02:13:24;;;;;;;25.50;15.70;;;;;;;;;;5103973;27;20543;-73
2021/05/14 02:15:50;;;;;;;20.77;15.48;;;;;;;;;;5119112;27;20182;-74
2021/05/14 02:18:16;;;;;;;24.10;16.70;;;;;;;;;;5114577;27;20266;-76
2021/05/14 02:20:42;;;;;;;28.90;15.80;;;;;;;;;;5114011;28;20404;-74
2021/05/14 02:23:08;;;;;;;20.77;15.70;;;;;;;;;;5129233;27;20435;-76
2021/05/14 02:25:34;;;;;;;24.20;17.17;;;;;;;;;;5134578;27;20201;-76
2021/05/14 02:28:02;;;;;;;24.40;15.80;;;;;;;;;;5126161;27;20423;-76
2021/05/14 02:30:29;;;;;;;21.48;16.92;;;;;;;;;;5113791;28;20175;-74
2021/05/14 02:32:55;;;;;;;22.10;16.23;;;;;;;;;;5108991;27;20290;-74
2021/05/14 02:35:21;;;;;;;22.30;16.90;;;;;;;;;;5137958;27;20307;-74
2021/05/14 02:37:47;;;;;;;26.40;16.73;;;;;;;;;;5126387;27;20417;-76
2021/05/14 02:40:14;;;;;;;29.80;19.13;;;;;;;;;;5113959;28;20440;-77
2021/05/14 02:42:39;;;;;;;26.52;18.45;;;;;;;;;;5114685;27;20228;-74
2021/05/14 02:45:06;;;;;;;26.00;16.80;;;;;;;;;;5113166;28;20662;-76
2021/05/14 02:47:32;;;;;;;27.70;17.83;;;;;;;;;;5115337;27;20779;-77
2021/05/14 02:49:58;;;;;;;34.27;16.93;;;;;;;;;;5127055;27;20276;-76
2021/05/14 02:52:24;;;;;;;27.10;17.25;;;;;;;;;;5128948;27;20472;-75
2021/05/14 02:54:50;;;;;;;23.15;16.40;;;;;;;;;;5101100;28;20176;-73
2021/05/14 02:57:17;;;;;;;25.43;16.53;;;;;;;;;;5112625;27;20247;-75
2021/05/14 02:59:43;;;;;;;30.60;16.02;;;;;;;;;;5109246;27;20497;-75
2021/05/14 03:02:09;;;;;;;23.75;16.05;;;;;;;;;;5104890;27;20176;-75
2021/05/14 03:04:35;;;;;;;25.65;15.40;;;;;;;;;;5121167;27;20567;-77
2021/05/14 03:07:01;;;;;;;25.08;17.05;;;;;;;;;;5116518;27;20180;-74
2021/05/14 03:09:28;;;;;;;24.05;16.90;;;;;;;;;;5114601;27;20678;-75
2021/05/14 03:11:54;;;;;;;28.70;16.88;;;;;;;;;;5119060;27;20281;-75
2021/05/14 03:14:20;;;;;;;23.23;16.05;;;;;;;;;;5116542;28;20198;-75
2021/05/14 03:16:46;;;;;;;23.88;15.48;;;;;;;;;;5115414;27;20231;-74
2021/05/14 03:19:12;;;;;;;24.00;15.87;;;;;;;;;;5127445;27;20649;-75
2021/05/14 03:21:38;;;;;;;32.47;16.77;;;;;;;;;;5126355;27;20507;-75
2021/05/14 03:24:04;;;;;;;24.02;15.35;;;;;;;;;;5133545;27;20415;-76
2021/05/14 03:26:30;;;;;;;23.90;15.35;;;;;;;;;;5130158;27;20637;-76
2021/05/14 03:28:56;;;;;;;29.03;16.40;;;;;;;;;;5117799;27;20316;-77
2021/05/14 03:31:22;;;;;;;23.33;14.65;;;;;;;;;;5111138;28;20427;-74
2021/05/14 03:33:48;;;;;;;25.00;16.23;;;;;;;;;;5117545;28;20187;-76
2021/05/14 03:36:19;;;;;;;24.50;14.63;;;;;;;;;;5119829;28;20198;-73
2021/05/14 03:38:45;;;;;;;22.55;14.80;;;;;;;;;;5114507;28;20496;-76
2021/05/14 03:41:32;;;;;;;26.13;15.67;;;;;;;;;;5113237;28;20195;-76
2021/05/14 03:43:59;;;;;;;30.45;16.50;;;;;;;;;;5111412;28;20939;-74
2021/05/14 03:46:28;;;;;;;25.67;15.95;;;;;;;;;;5112714;28;20181;-75
2021/05/14 03:48:54;;;;;;;26.83;16.65;;;;;;;;;;5109547;28;20552;-73
2021/05/14 03:51:20;;;;;;;25.73;14.77;;;;;;;;;;5123347;28;20178;-73
2021/05/14 03:53:46;;;;;;;24.40;16.50;;;;;;;;;;5129836;28;20498;-75
2021/05/14 03:56:12;;;;;;;24.97;13.67;;;;;;;;;;5112934;28;20417;-77
2021/05/14 03:58:38;;;;;;;25.03;18.03;;;;;;;;;;5112565;28;20550;-76
2021/05/14 04:01:04;;;;;;;26.40;17.00;;;;;;;;;;5111894;27;20448;-76
2021/05/14 04:03:30;;;;;;;25.93;17.13;;;;;;;;;;5126727;27;20172;-73
2021/05/14 04:05:56;;;;;;;31.20;16.20;;;;;;;;;;5120246;27;20515;-77
2021/05/14 04:08:22;;;;;;;27.43;15.77;;;;;;;;;;5115162;27;20194;-74
2021/05/14 04:11:02;;;;;;;28.52;16.02;;;;;;;;;;5137326;27;20434;-77
2021/05/14 04:16:13;;;;;;;24.15;15.55;;;;;;;;;;5119766;27;20193;-75
2021/05/14 04:18:39;;;;;;;25.80;16.00;;;;;;;;;;5112908;27;20199;-76
2021/05/14 04:21:06;;;;;;;27.02;16.23;;;;;;;;;;5113136;28;20408;-74
2021/05/14 04:23:32;;;;;;;27.42;16.17;;;;;;;;;;5126358;27;20550;-75
2021/05/14 04:25:58;;;;;;;23.30;15.23;;;;;;;;;;5122223;27;20291;-74
2021/05/14 04:28:24;;;;;;;26.20;15.17;;;;;;;;;;5121294;27;20440;-76
2021/05/14 04:30:50;;;;;;;32.58;15.05;;;;;;;;;;5130787;27;20415;-76
2021/05/14 04:33:16;;;;;;;22.90;14.57;;;;;;;;;;5123283;27;20174;-72
2021/05/14 04:35:42;;;;;;;25.27;13.33;;;;;;;;;;5114763;27;20455;-74
2021/05/14 04:38:08;;;;;;;20.90;13.90;;;;;;;;;;5108573;27;20639;-76
2021/05/14 04:40:34;;;;;;;24.43;14.33;;;;;;;;;;5129034;27;20619;-76
2021/05/14 04:43:00;;;;;;;24.38;13.63;;;;;;;;;;5107573;27;20424;-75
2021/05/14 04:45:26;;;;;;;25.40;14.90;;;;;;;;;;5120140;27;20357;-75
2021/05/14 04:47:52;;;;;;;26.88;14.95;;;;;;;;;;5114190;27;20217;-77
2021/05/14 04:50:18;;;;;;;21.73;12.95;;;;;;;;;;5126097;27;20206;-76
2021/05/14 04:52:48;;;;;;;30.02;15.57;;;;;;;;;;5115610;28;20297;-74
2021/05/14 04:55:15;;;;;;;23.75;13.57;;;;;;;;;;5133916;27;20615;-75
2021/05/14 04:57:41;;;;;;;27.88;13.60;;;;;;;;;;5136304;27;20170;-73
2021/05/14 05:00:07;;;;;;;23.50;13.10;;;;;;;;;;5112006;27;20539;-75
2021/05/14 05:02:34;;;;;;;24.20;12.68;;;;;;;;;;5113933;27;20598;-76
2021/05/14 05:05:00;;;;;;;24.92;12.13;;;;;;;;;;5131169;27;20689;-76
2021/05/14 05:07:26;;;;;;;21.75;12.27;;;;;;;;;;5134667;27;20542;-77
2021/05/14 05:09:52;;;;;;;16.93;11.63;;;;;;;;;;5131215;27;20225;-75
2021/05/14 05:12:18;;;;;;;20.27;12.20;;;;;;;;;;5108309;27;20512;-76
2021/05/14 05:14:45;;;;;;;23.10;13.57;;;;;;;;;;5110712;27;20430;-75
2021/05/14 05:17:11;;;;;;;17.85;12.77;;;;;;;;;;5114968;27;20747;-77
2021/05/14 05:19:37;;;;;;;21.33;12.07;;;;;;;;;;5114926;27;20202;-75
2021/05/14 05:22:03;;;;;;;17.90;12.00;;;;;;;;;;5115023;27;20178;-74
2021/05/14 05:24:29;;;;;;;21.53;13.03;;;;;;;;;;5131002;27;20865;-75
2021/05/14 05:26:55;;;;;;;16.60;12.30;;;;;;;;;;5115293;28;20416;-75
2021/05/14 05:29:21;;;;;;;18.67;10.83;;;;;;;;;;5119898;27;20459;-77
2021/05/14 05:31:47;;;;;;;22.20;11.90;;;;;;;;;;5116446;27;20411;-74
2021/05/14 05:34:13;;;;;;;19.73;12.80;;;;;;;;;;5130752;27;20810;-74
2021/05/14 05:36:39;;;;;;;20.50;11.33;;;;;;;;;;5124550;27;20768;-75
2021/05/14 05:39:06;;;;;;;21.25;12.32;;;;;;;;;;5114880;28;20481;-77
2021/05/14 05:41:32;;;;;;;15.82;12.18;;;;;;;;;;5126224;27;20515;-75
2021/05/14 05:43:58;;;;;;;19.23;12.23;;;;;;;;;;5114340;28;20236;-76
2021/05/14 05:46:24;;;;;;;18.57;11.30;;;;;;;;;;5130547;27;20432;-75
2021/05/14 05:48:50;;;;;;;21.67;12.18;;;;;;;;;;5112714;28;20479;-76
2021/05/14 05:51:16;;;;;;;21.10;11.90;;;;;;;;;;5114220;27;20178;-74
2021/05/14 05:53:45;;;;;;;20.90;12.73;;;;;;;;;;5120107;27;20184;-76
2021/05/14 05:56:12;;;;;;;21.77;10.98;;;;;;;;;;5127682;27;20537;-75
2021/05/14 05:58:38;;;;;;;18.58;11.98;;;;;;;;;;5135031;27;20217;-77
2021/05/14 06:01:04;;;;;;;19.30;11.02;;;;;;;;;;5135234;27;20546;-76
2021/05/14 06:03:30;;;;;;;20.23;11.25;;;;;;;;;;5134714;27;20174;-77
2021/05/14 06:05:56;;;;;;;18.57;10.77;;;;;;;;;;5134872;27;20209;-75
2021/05/14 06:08:24;;;;;;;18.30;10.83;;;;;;;;;;5134685;27;20502;-76
2021/05/14 06:10:51;;;;;;;17.45;9.93;;;;;;;;;;5134908;27;21022;-77
2021/05/14 06:13:17;;;;;;;21.23;10.20;;;;;;;;;;5116015;27;20206;-76
2021/05/14 06:15:44;;;;;;;17.50;10.47;;;;;;;;;;5127445;27;20594;-75
2021/05/14 06:18:13;;;;;;;12.48;9.35;;;;;;;;;;5134442;27;20460;-76
2021/05/14 06:20:43;;;;;;;20.85;10.68;;;;;;;;;;5134731;27;20177;-76
2021/05/14 06:23:09;;;;;;;16.33;9.98;;;;;;;;;;5134410;27;20226;-76
2021/05/14 06:25:35;;;;;;;15.05;9.90;;;;;;;;;;5134844;27;20202;-76
2021/05/14 06:28:02;;;;;;;15.38;10.05;;;;;;;;;;5126734;27;20175;-75
2021/05/14 06:30:28;;;;;;;13.43;10.10;;;;;;;;;;5127815;27;20230;-75
2021/05/14 06:32:54;;;;;;;16.20;8.60;;;;;;;;;;5134337;27;20646;-75
2021/05/14 06:35:20;;;;;;;19.42;10.10;;;;;;;;;;5134356;27;20403;-76
2021/05/14 06:37:46;;;;;;;13.27;8.93;;;;;;;;;;5127234;27;20186;-75
2021/05/14 06:40:12;;;;;;;15.43;9.93;;;;;;;;;;5126793;27;20251;-75
2021/05/14 06:42:38;;;;;;;15.80;9.95;;;;;;;;;;5134264;27;20173;-77
2021/05/14 06:45:05;;;;;;;12.50;9.57;;;;;;;;;;5133864;27;20666;-76
2021/05/14 06:47:31;;;;;;;16.65;9.55;;;;;;;;;;5134462;27;20382;-75
2021/05/14 06:50:02;;;;;;;18.48;10.45;;;;;;;;;;5120340;27;20226;-74
2021/05/14 06:52:28;;;;;;;14.32;10.52;;;;;;;;;;5134390;27;20260;-75
2021/05/14 06:54:54;;;;;;;18.90;9.83;;;;;;;;;;5134047;27;20626;-77
2021/05/14 06:57:20;;;;;;;13.35;9.57;;;;;;;;;;5134321;27;20418;-77
2021/05/14 06:59:46;;;;;;;20.00;10.60;;;;;;;;;;5120047;27;20198;-75
2021/05/14 07:02:12;;;;;;;19.17;10.02;;;;;;;;;;5134323;27;20486;-74
2021/05/14 07:04:38;;;;;;;20.55;10.35;;;;;;;;;;5133383;27;20205;-77
2021/05/14 07:07:04;;;;;;;15.33;9.00;;;;;;;;;;5133979;27;20189;-75
2021/05/14 07:09:30;;;;;;;18.60;10.60;;;;;;;;;;5133573;27;20423;-75
2021/05/14 07:11:57;;;;;;;16.23;10.37;;;;;;;;;;5126189;27;20420;-74
2021/05/14 07:14:23;;;;;;;13.48;9.57;;;;;;;;;;5112550;27;20433;-74
2021/05/14 07:16:50;;;;;;;22.52;10.55;;;;;;;;;;5133984;27;20379;-74
2021/05/14 07:19:16;;;;;;;17.15;9.93;;;;;;;;;;5110134;27;20551;-74
2021/05/14 07:21:42;;;;;;;18.75;10.25;;;;;;;;;;5104190;28;20210;-76
2021/05/14 07:24:09;;;;;;;19.85;10.50;;;;;;;;;;5109310;28;20175;-75
2021/05/14 07:26:35;;;;;;;12.98;9.25;;;;;;;;;;5114895;27;20185;-75
2021/05/14 07:29:03;;;;;;;14.93;9.32;;;;;;;;;;5125988;27;20245;-76
2021/05/14 07:31:29;;;;;;;14.45;9.45;;;;;;;;;;5130146;27;20180;-76
2021/05/14 07:33:55;;;;;;;22.75;9.95;;;;;;;;;;5103073;28;20197;-75
2021/05/14 07:36:21;;;;;;;13.23;9.60;;;;;;;;;;5114202;28;20174;-75
2021/05/14 07:38:47;;;;;;;12.37;9.23;;;;;;;;;;5123491;27;20220;-76
2021/05/14 07:41:13;;;;;;;16.93;8.80;;;;;;;;;;5116164;27;20420;-74
2021/05/14 07:43:39;;;;;;;16.25;8.90;;;;;;;;;;5117313;27;20503;-75
2021/05/14 07:46:05;;;;;;;15.32;9.15;;;;;;;;;;5123436;27;20195;-75
2021/05/14 07:48:31;;;;;;;14.63;8.68;;;;;;;;;;5115596;27;20220;-76
2021/05/14 07:50:57;;;;;;;16.20;8.25;;;;;;;;;;5125099;27;20918;-76
2021/05/14 07:53:23;;;;;;;20.30;9.90;;;;;;;;;;5136417;27;20209;-76
2021/05/14 07:55:49;;;;;;;16.70;8.70;;;;;;;;;;5125636;27;20446;-78
2021/05/14 07:58:15;;;;;;;18.10;8.93;;;;;;;;;;5131519;27;20894;-78
2021/05/14 08:00:41;;;;;;;18.23;9.63;;;;;;;;;;5136921;27;20492;-77
2021/05/14 08:03:08;;;;;;;15.73;8.75;;;;;;;;;;5133190;27;20254;-76
2021/05/14 08:05:34;;;;;;;26.25;10.50;;;;;;;;;;5115853;27;20218;-76
2021/05/14 08:08:09;;;;;;;13.85;9.77;;;;;;;;;;5131621;27;20238;-78
2021/05/14 08:10:35;;;;;;;18.77;9.75;;;;;;;;;;5136589;27;20472;-74
2021/05/14 08:13:01;;;;;;;18.65;10.80;;;;;;;;;;5125148;27;20174;-76
2021/05/14 08:15:27;;;;;;;15.95;9.45;;;;;;;;;;5125949;27;20262;-74
2021/05/14 08:17:53;;;;;;;15.40;10.38;;;;;;;;;;5133071;27;20178;-77
2021/05/14 08:20:20;;;;;;;15.80;10.33;;;;;;;;;;5136413;27;20249;-78
2021/05/14 08:22:46;;;;;;;18.20;10.38;;;;;;;;;;5134936;27;20407;-78
2021/05/14 08:25:12;;;;;;;17.40;9.30;;;;;;;;;;5132549;27;20200;-79
2021/05/14 08:27:39;;;;;;;15.00;10.85;;;;;;;;;;5131646;27;20179;-79
2021/05/14 08:30:06;;;;;;;15.48;10.40;;;;;;;;;;5106440;27;20237;-79
2021/05/14 08:32:32;;;;;;;18.88;10.70;;;;;;;;;;5132032;27;20271;-78
2021/05/14 08:34:58;;;;;;;20.60;11.50;;;;;;;;;;5136095;27;20401;-79
2021/05/14 08:37:24;;;;;;;13.32;9.95;;;;;;;;;;5136162;27;20410;-78
2021/05/14 08:39:50;;;;;;;16.13;10.37;;;;;;;;;;5124226;27;20934;-78
2021/05/14 08:42:16;;;;;;;19.23;10.73;;;;;;;;;;5115712;27;20843;-79
2021/05/14 08:44:43;;;;;;;19.63;10.40;;;;;;;;;;5127041;27;20201;-79
2021/05/14 08:47:09;;;;;;;22.77;10.80;;;;;;;;;;5134438;27;20174;-78
2021/05/14 08:49:38;;;;;;;21.42;11.70;;;;;;;;;;5132499;27;20200;-79
2021/05/14 08:52:05;;;;;;;37.40;18.15;;;;;;;;;;5112259;27;20331;-78
2021/05/14 08:54:31;;;;;;;47.38;25.60;;;;;;;;;;5124095;27;20196;-79
2021/05/14 08:56:57;;;;;;;22.88;13.60;;;;;;;;;;5132638;27;20174;-79
2021/05/14 08:59:23;;;;;;;46.33;26.80;;;;;;;;;;5132390;27;20255;-79
2021/05/14 09:01:50;;;;;;;25.93;17.30;;;;;;;;;;5132802;27;20213;-78
2021/05/14 09:04:18;;;;;;;20.38;13.10;;;;;;;;;;5132406;27;20427;-79
2021/05/14 09:06:45;;;;;;;20.88;12.25;;;;;;;;;;5132748;27;20242;-78
2021/05/14 09:09:12;;;;;;;17.08;11.45;;;;;;;;;;5132353;27;20190;-79
2021/05/14 09:11:41;;;;;;;19.40;12.63;;;;;;;;;;5127163;27;20178;-78
2021/05/14 09:14:08;;;;;;;21.33;12.10;;;;;;;;;;5114616;27;20202;-78
2021/05/14 09:16:44;;;;;;;20.88;13.10;;;;;;;;;;5118344;27;20178;-80
2021/05/14 09:19:11;;;;;;;24.98;13.70;;;;;;;;;;5132494;27;20296;-80
2021/05/14 09:21:38;;;;;;;20.08;12.65;;;;;;;;;;5131200;27;20624;-79
2021/05/14 09:24:04;;;;;;;20.60;13.85;;;;;;;;;;5131610;27;20174;-79
2021/05/14 09:26:31;;;;;;;18.98;12.25;;;;;;;;;;5119819;27;20208;-78
2021/05/14 09:28:58;;;;;;;26.05;14.88;;;;;;;;;;5117745;27;20610;-79
2021/05/14 09:31:25;;;;;;;24.27;13.27;;;;;;;;;;5130777;27;20546;-79
2021/05/14 09:33:55;;;;;;;26.95;14.07;;;;;;;;;;5132036;27;20194;-78
2021/05/14 09:36:26;;;;;;;22.40;13.55;;;;;;;;;;5132075;27;20174;-77
2021/05/14 09:38:54;;;;;;;24.52;14.57;;;;;;;;;;5131950;27;20632;-78
2021/05/14 09:41:29;;;;;;;25.30;13.73;;;;;;;;;;5132024;27;20177;-81
2021/05/14 09:43:58;;;;;;;21.08;14.10;;;;;;;;;;5131735;27;20177;-79
2021/05/14 09:46:25;;;;;;;29.55;14.80;;;;;;;;;;5131681;27;20417;-77
2021/05/14 09:49:01;;;;;;;17.08;12.77;;;;;;;;;;5131556;27;20522;-77
2021/05/14 09:51:27;;;;;;;25.88;13.32;;;;;;;;;;5131731;27;20178;-78
2021/05/14 09:53:53;;;;;;;26.30;14.00;;;;;;;;;;5131823;27;20205;-79
2021/05/14 09:56:27;;;;;;;24.77;14.90;;;;;;;;;;5130216;27;20178;-76
2021/05/14 09:58:54;;;;;;;27.33;15.32;;;;;;;;;;5131144;27;20197;-79
2021/05/14 10:01:20;;;;;;;21.40;14.80;;;;;;;;;;5131551;27;20173;-77
2021/05/14 10:03:47;;;;;;;25.87;15.57;;;;;;;;;;5131743;27;20343;-79
2021/05/14 10:06:14;;;;;;;22.90;14.27;;;;;;;;;;5131412;27;20497;-78
2021/05/14 10:08:42;;;;;;;21.58;14.75;;;;;;;;;;5131483;27;20558;-79
2021/05/14 10:11:08;;;;;;;22.55;13.90;;;;;;;;;;5130040;27;20170;-79
2021/05/14 10:13:36;;;;;;;24.60;14.00;;;;;;;;;;5113106;27;20175;-78
2021/05/14 10:16:06;;;;;;;26.48;13.90;;;;;;;;;;5113030;27;20610;-78
2021/05/14 10:18:34;;;;;;;21.50;11.85;;;;;;;;;;5131309;27;20556;-77
2021/05/14 10:21:05;;;;;;;20.42;12.75;;;;;;;;;;5131385;27;20208;-78
2021/05/14 10:23:31;;;;;;;21.95;12.40;;;;;;;;;;5131504;27;20209;-79
2021/05/14 10:26:08;;;;;;;25.50;14.07;;;;;;;;;;5117493;27;20209;-77
2021/05/14 10:28:39;;;;;;;19.58;13.80;;;;;;;;;;5118866;27;20194;-77
2021/05/14 10:31:07;;;;;;;25.60;14.88;;;;;;;;;;5129996;27;20204;-76
2021/05/14 10:33:51;;;;;;;25.80;13.25;;;;;;;;;;5129188;27;20662;-78
2021/05/14 10:36:32;;;;;;;19.75;13.30;;;;;;;;;;5130945;27;20651;-76
2021/05/14 10:39:07;;;;;;;21.27;13.88;;;;;;;;;;5130818;27;20828;-77
2021/05/14 10:41:33;;;;;;;23.75;14.52;;;;;;;;;;5130714;27;20177;-77
2021/05/14 10:44:01;;;;;;;19.05;11.60;;;;;;;;;;5130598;27;20257;-77
2021/05/14 10:46:28;;;;;;;28.30;20.95;;;;;;;;;;5131000;27;20182;-78
2021/05/14 10:49:13;;;;;;;21.83;13.02;;;;;;;;;;5111143;28;20191;-78
2021/05/14 10:51:49;;;;;;;22.67;13.13;;;;;;;;;;5111567;27;20288;-77
2021/05/14 10:54:33;;;;;;;21.42;15.15;;;;;;;;;;5130675;27;20181;-78
2021/05/14 10:56:59;;;;;;;20.13;13.20;;;;;;;;;;5130652;27;20205;-75
2021/05/14 10:59:35;;;;;;;30.33;21.13;;;;;;;;;;5129066;27;20225;-78
2021/05/14 11:02:02;;;;;;;28.15;19.23;;;;;;;;;;5130490;27;20537;-79
2021/05/14 11:04:40;;;;;;;23.40;15.73;;;;;;;;;;5130162;27;20285;-77
2021/05/14 11:07:07;;;;;;;22.95;13.45;;;;;;;;;;5129040;27;20550;-77
2021/05/14 11:09:33;;;;;;;20.98;13.18;;;;;;;;;;5129809;27;20258;-76
2021/05/14 11:11:59;;;;;;;24.77;14.63;;;;;;;;;;5121123;27;20174;-76
2021/05/14 11:14:25;;;;;;;24.10;16.63;;;;;;;;;;5123097;27;20181;-77
2021/05/14 11:16:52;;;;;;;26.65;15.55;;;;;;;;;;5118186;27;20184;-76
2021/05/14 11:19:21;;;;;;;22.90;14.73;;;;;;;;;;5129926;27;20209;-77
2021/05/14 11:22:08;;;;;;;27.27;14.82;;;;;;;;;;5128652;27;20538;-75
2021/05/14 11:24:35;;;;;;;22.05;15.23;;;;;;;;;;5129729;27;20190;-78
2021/05/14 11:27:11;;;;;;;26.75;15.65;;;;;;;;;;5130081;27;20178;-77
2021/05/14 11:29:44;;;;;;;30.80;20.27;;;;;;;;;;5129360;27;20586;-76
2021/05/14 11:32:16;;;;;;;23.05;14.45;;;;;;;;;;5129858;27;20169;-77
2021/05/14 11:34:52;;;;;;;24.20;17.08;;;;;;;;;;5129940;28;20178;-77
2021/05/14 11:37:19;;;;;;;25.13;15.50;;;;;;;;;;5127024;28;20182;-77
2021/05/14 11:39:45;;;;;;;26.55;16.30;;;;;;;;;;5119150;28;20276;-77
2021/05/14 11:42:26;;;;;;;27.23;16.43;;;;;;;;;;5129897;28;20257;-76
2021/05/14 11:44:56;;;;;;;21.38;14.77;;;;;;;;;;5129959;28;20453;-79
2021/05/14 11:47:22;;;;;;;21.15;14.50;;;;;;;;;;5130190;28;20166;-78
2021/05/14 11:49:48;;;;;;;19.33;13.02;;;;;;;;;;5130043;28;20201;-78
2021/05/14 11:52:15;;;;;;;21.43;13.87;;;;;;;;;;5110730;28;20594;-78
2021/05/14 11:54:41;;;;;;;20.35;14.20;;;;;;;;;;5121974;28;20415;-79
2021/05/14 11:57:07;;;;;;;23.38;15.43;;;;;;;;;;5130084;28;20178;-79
2021/05/14 11:59:33;;;;;;;21.73;15.10;;;;;;;;;;5129808;28;20685;-77
2021/05/14 12:01:58;;;;;;;20.45;13.68;;;;;;;;;;5129741;28;20425;-78
2021/05/14 12:04:24;;;;;;;18.13;13.27;;;;;;;;;;5129704;28;22144;-78
2021/05/14 12:06:51;;;;;;;21.77;14.45;;;;;;;;;;5110980;28;20473;-76
2021/05/14 12:09:17;;;;;;;22.02;13.60;;;;;;;;;;5121409;28;20204;-76
2021/05/14 12:11:47;;;;;;;20.98;15.35;;;;;;;;;;5123674;28;20191;-76
2021/05/14 12:14:25;;;;;;;17.90;13.88;;;;;;;;;;5112169;28;20218;-76
2021/05/14 12:16:51;;;;;;;23.50;13.60;;;;;;;;;;5117760;28;20184;-77
2021/05/14 12:19:17;;;;;;;24.05;14.55;;;;;;;;;;5129595;28;20208;-77
2021/05/14 12:21:43;;;;;;;21.93;13.10;;;;;;;;;;5130887;27;20174;-77
2021/05/14 12:24:14;;;;;;;23.08;14.18;;;;;;;;;;5133432;27;20759;-78
2021/05/14 12:26:44;;;;;;;23.00;14.20;;;;;;;;;;5133769;27;20178;-78
2021/05/14 12:29:23;;;;;;;25.15;14.18;;;;;;;;;;5118319;27;20195;-78
2021/05/14 12:32:15;;;;;;;32.08;15.50;;;;;;;;;;5132101;27;20661;-79
2021/05/14 12:34:51;;;;;;;22.50;13.13;;;;;;;;;;5129462;27;20189;-79
2021/05/14 12:37:17;;;;;;;24.08;13.98;;;;;;;;;;5133339;27;20409;-77
2021/05/14 12:39:50;;;;;;;22.40;14.40;;;;;;;;;;5127685;27;20570;-77
2021/05/14 12:42:29;;;;;;;19.92;13.95;;;;;;;;;;5125522;27;20428;-77
2021/05/14 12:44:58;;;;;;;25.88;15.77;;;;;;;;;;5104151;28;20865;-77
2021/05/14 12:47:27;;;;;;;23.25;14.85;;;;;;;;;;5118444;27;20581;-78
2021/05/14 12:49:55;;;;;;;25.33;15.15;;;;;;;;;;5118579;27;20205;-75
2021/05/14 12:52:24;;;;;;;25.45;14.98;;;;;;;;;;5112480;27;20174;-75
2021/05/14 12:54:56;;;;;;;21.88;15.15;;;;;;;;;;5110370;28;20185;-76
2021/05/14 12:57:26;;;;;;;23.35;15.15;;;;;;;;;;5115388;27;20593;-76
2021/05/14 12:59:53;;;;;;;24.35;14.82;;;;;;;;;;5116444;27;20248;-75
2021/05/14 13:02:19;;;;;;;26.17;16.30;;;;;;;;;;5132636;27;20201;-77
2021/05/14 13:04:46;;;;;;;26.65;15.40;;;;;;;;;;5129930;27;20660;-74
2021/05/14 13:07:13;;;;;;;28.63;16.92;;;;;;;;;;5112324;28;20541;-75
2021/05/14 13:09:48;;;;;;;27.50;16.70;;;;;;;;;;5125768;27;20208;-74
2021/05/14 13:12:14;;;;;;;23.48;15.00;;;;;;;;;;5102321;28;20594;-76
2021/05/14 13:14:40;;;;;;;27.70;16.23;;;;;;;;;;5113107;27;20171;-75
2021/05/14 13:17:06;;;;;;;32.15;15.65;;;;;;;;;;5112899;27;20426;-75
2021/05/14 13:19:33;;;;;;;28.33;15.63;;;;;;;;;;5132438;27;20198;-76
2021/05/14 13:21:59;;;;;;;24.60;14.77;;;;;;;;;;5110895;27;20750;-76
2021/05/14 13:24:25;;;;;;;34.75;17.65;;;;;;;;;;5115367;27;20189;-76
2021/05/14 13:26:51;;;;;;;33.17;16.60;;;;;;;;;;5118528;27;20178;-74
2021/05/14 13:29:17;;;;;;;25.00;16.05;;;;;;;;;;5117700;27;20229;-75
2021/05/14 13:31:44;;;;;;;27.95;15.85;;;;;;;;;;5114496;27;20186;-74
2021/05/14 13:34:10;;;;;;;22.95;13.95;;;;;;;;;;5128424;27;20562;-73
2021/05/14 13:36:36;;;;;;;26.13;15.65;;;;;;;;;;5121246;27;20590;-73
2021/05/14 13:39:02;;;;;;;27.33;15.73;;;;;;;;;;5108202;27;20229;-74
2021/05/14 13:41:28;;;;;;;23.85;15.07;;;;;;;;;;5117884;27;20695;-76
2021/05/14 13:43:55;;;;;;;21.60;14.75;;;;;;;;;;5120161;27;20185;-77
2021/05/14 13:46:21;;;;;;;19.27;13.30;;;;;;;;;;5112950;27;20213;-75
2021/05/14 13:48:47;;;;;;;32.58;17.58;;;;;;;;;;5132005;27;20281;-75
2021/05/14 13:51:13;;;;;;;21.63;15.20;;;;;;;;;;5116275;27;20537;-75
2021/05/14 13:53:39;;;;;;;29.48;14.52;;;;;;;;;;5111897;27;20181;-76
2021/05/14 13:56:05;;;;;;;20.45;13.63;;;;;;;;;;5114848;27;20225;-75
2021/05/14 13:58:31;;;;;;;26.92;18.65;;;;;;;;;;5131512;27;20216;-75
2021/05/14 14:00:57;;;;;;;24.67;14.15;;;;;;;;;;5123117;27;20183;-75
2021/05/14 14:03:23;;;;;;;18.17;13.40;;;;;;;;;;5131790;27;20329;-76
2021/05/14 14:05:49;;;;;;;18.17;12.48;;;;;;;;;;5126851;27;20460;-76
2021/05/14 14:08:15;;;;;;;22.20;15.55;;;;;;;;;;5131314;27;20281;-76
2021/05/14 14:10:42;;;;;;;18.07;12.80;;;;;;;;;;5130088;27;20262;-74
2021/05/14 14:13:09;;;;;;;21.80;13.00;;;;;;;;;;5121910;27;20415;-75
2021/05/14 14:15:40;;;;;;;21.38;14.15;;;;;;;;;;5110487;27;20246;-75
2021/05/14 14:18:07;;;;;;;20.10;12.90;;;;;;;;;;5110500;28;20178;-77
2021/05/14 14:20:33;;;;;;;25.92;13.55;;;;;;;;;;5121544;27;20584;-75
2021/05/14 14:22:59;;;;;;;19.23;12.70;;;;;;;;;;5131227;27;20186;-75